This is the latest recevied weather packets stored in our database for station/object N0EDB-13. If no packets are shown the sender has not sent any weather packets the latest 10 day(s).
| Time | Temp. | Humidity | Pressure | Rain* | Wind** | Luminosity | Snow |
|---|---|---|---|---|---|---|---|
| 1777723338 | 0° C | 65% | 1541.5 hPa | 0 mm | - | 6 W/m² | - |
| 1777723038 | 0° C | 64% | 1541.1 hPa | 0 mm | - | 4 W/m² | - |
| 1777722736 | 0° C | 64% | 1540.8 hPa | 0 mm | - | 1 W/m² | - |
| 1777722436 | 0.56° C | 62% | 1540.4 hPa | 0 mm | - | 1 W/m² | - |
| 1777722135 | 0.56° C | 62% | 1540.2 hPa | 0 mm | - | 0 W/m² | - |
| 1777721834 | 0.56° C | 60% | 1539.5 hPa | 0 mm | - | 0 W/m² | - |
| 1777721534 | 0.56° C | 60% | 1539.3 hPa | 0 mm | - | 0 W/m² | - |
| 1777721233 | 0.56° C | 61% | 1539.4 hPa | 0 mm | - | 0 W/m² | - |
| 1777720932 | 0.56° C | 61% | 1539.2 hPa | 0 mm | - | 0 W/m² | - |
| 1777720632 | 0.56° C | 61% | 1539.1 hPa | 0 mm | - | 0 W/m² | - |
| 1777720331 | 1.11° C | 60% | 1538.9 hPa | 0 mm | - | 0 W/m² | - |
| 1777720030 | 1.11° C | 59% | 1538.8 hPa | 0 mm | - | 0 W/m² | - |
| 1777719730 | 0.56° C | 60% | 1539.1 hPa | 0 mm | - | 0 W/m² | - |
| 1777719429 | 0.56° C | 60% | 1539 hPa | 0 mm | - | 0 W/m² | - |
| 1777719128 | 1.11° C | 61% | 1538.7 hPa | 0 mm | - | 0 W/m² | - |
| 1777718827 | 1.11° C | 61% | 1537.5 hPa | 0 mm | - | 0 W/m² | - |
| 1777718526 | 1.67° C | 60% | 1536.7 hPa | 0 mm | - | 0 W/m² | - |
| 1777718226 | 1.67° C | 59% | 1536.2 hPa | 0 mm | - | 0 W/m² | - |
| 1777717925 | 1.67° C | 60% | 1536.3 hPa | 0 mm | - | 0 W/m² | - |
| 1777717625 | 1.67° C | 61% | 1536.1 hPa | 0 mm | - | 0 W/m² | - |
| 1777717324 | 2.22° C | 60% | 1535.2 hPa | 0 mm | - | 0 W/m² | - |
| 1777717024 | 2.78° C | 58% | 1533.3 hPa | 0 mm | - | 0 W/m² | - |
| 1777716724 | 3.33° C | 57% | 1531.5 hPa | 0 mm | - | 0 W/m² | - |
| 1777716423 | 3.33° C | 56% | 1530.6 hPa | 0 mm | - | 0 W/m² | - |
| 1777716122 | 3.33° C | 55% | 1530.2 hPa | 0 mm | - | 0 W/m² | - |
* Rain latest hour (hover to see other rain measurements)
** Current wind speed in m/s (hover to see current wind gust speed)